sensor_id;sensor_type;location;lat;lon;timestamp;P1;durP1;ratioP1;P2;durP2;ratioP2
70014;SDS011;57358;51.094;6.760;2023-05-10T00:00:54;8.32;;;7.47;;
70014;SDS011;57358;51.094;6.760;2023-05-10T00:03:20;10.70;;;7.97;;
70014;SDS011;57358;51.094;6.760;2023-05-10T00:05:47;9.65;;;7.60;;
70014;SDS011;57358;51.094;6.760;2023-05-10T00:08:13;7.90;;;7.13;;
70014;SDS011;57358;51.094;6.760;2023-05-10T00:10:40;8.57;;;7.72;;
70014;SDS011;57358;51.094;6.760;2023-05-10T00:13:07;9.60;;;8.20;;
70014;SDS011;57358;51.094;6.760;2023-05-10T00:15:33;14.25;;;8.32;;
70014;SDS011;57358;51.094;6.760;2023-05-10T00:18:00;9.82;;;8.43;;
70014;SDS011;57358;51.094;6.760;2023-05-10T00:20:27;10.00;;;7.38;;
70014;SDS011;57358;51.094;6.760;2023-05-10T00:22:56;8.25;;;7.07;;
70014;SDS011;57358;51.094;6.760;2023-05-10T00:25:22;8.48;;;7.75;;
70014;SDS011;57358;51.094;6.760;2023-05-10T00:27:49;10.90;;;7.72;;
70014;SDS011;57358;51.094;6.760;2023-05-10T00:30:15;8.57;;;7.20;;
70014;SDS011;57358;51.094;6.760;2023-05-10T00:32:42;7.53;;;6.80;;
70014;SDS011;57358;51.094;6.760;2023-05-10T00:35:09;7.95;;;7.28;;
70014;SDS011;57358;51.094;6.760;2023-05-10T00:37:36;7.20;;;6.45;;
70014;SDS011;57358;51.094;6.760;2023-05-10T00:40:03;7.82;;;7.03;;
70014;SDS011;57358;51.094;6.760;2023-05-10T00:42:29;8.73;;;7.63;;
70014;SDS011;57358;51.094;6.760;2023-05-10T00:44:56;7.93;;;6.88;;
70014;SDS011;57358;51.094;6.760;2023-05-10T00:47:22;8.45;;;7.22;;
70014;SDS011;57358;51.094;6.760;2023-05-10T00:49:49;8.20;;;6.82;;
70014;SDS011;57358;51.094;6.760;2023-05-10T00:52:16;8.55;;;7.53;;
70014;SDS011;57358;51.094;6.760;2023-05-10T00:54:42;8.65;;;7.65;;
70014;SDS011;57358;51.094;6.760;2023-05-10T00:57:09;7.57;;;6.88;;
70014;SDS011;57358;51.094;6.760;2023-05-10T00:59:36;7.40;;;6.70;;
70014;SDS011;57358;51.094;6.760;2023-05-10T01:02:02;7.22;;;6.45;;
70014;SDS011;57358;51.094;6.760;2023-05-10T01:04:29;7.82;;;7.03;;
70014;SDS011;57358;51.094;6.760;2023-05-10T01:06:56;8.15;;;7.07;;
70014;SDS011;57358;51.094;6.760;2023-05-10T01:09:23;6.57;;;6.00;;
70014;SDS011;57358;51.094;6.760;2023-05-10T01:11:53;10.23;;;7.20;;
70014;SDS011;57358;51.094;6.760;2023-05-10T01:14:21;8.05;;;7.35;;
70014;SDS011;57358;51.094;6.760;2023-05-10T01:16:48;7.32;;;6.45;;
70014;SDS011;57358;51.094;6.760;2023-05-10T01:19:18;7.45;;;6.85;;
70014;SDS011;57358;51.094;6.760;2023-05-10T01:21:49;6.72;;;6.20;;
70014;SDS011;57358;51.094;6.760;2023-05-10T01:27:54;6.75;;;6.25;;
70014;SDS011;57358;51.094;6.760;2023-05-10T01:36:32;6.43;;;6.00;;
70014;SDS011;57358;51.094;6.760;2023-05-10T01:39:12;7.13;;;6.55;;
70014;SDS011;57358;51.094;6.760;2023-05-10T01:44:42;6.63;;;6.05;;
70014;SDS011;57358;51.094;6.760;2023-05-10T01:47:16;5.55;;;5.00;;
70014;SDS011;57358;51.094;6.760;2023-05-10T01:49:50;15.40;;;5.85;;
70014;SDS011;57358;51.094;6.760;2023-05-10T01:52:19;5.43;;;5.10;;
70014;SDS011;57358;51.094;6.760;2023-05-10T01:54:55;5.18;;;4.88;;
70014;SDS011;57358;51.094;6.760;2023-05-10T01:57:29;8.30;;;5.32;;
70014;SDS011;57358;51.094;6.760;2023-05-10T02:02:28;5.70;;;5.30;;
70014;SDS011;57358;51.094;6.760;2023-05-10T02:04:59;6.90;;;5.72;;
70014;SDS011;57358;51.094;6.760;2023-05-10T02:07:26;5.97;;;5.53;;
70014;SDS011;57358;51.094;6.760;2023-05-10T02:09:54;7.53;;;5.32;;
70014;SDS011;57358;51.094;6.760;2023-05-10T02:12:21;5.45;;;5.15;;
70014;SDS011;57358;51.094;6.760;2023-05-10T02:14:49;5.50;;;5.18;;
70014;SDS011;57358;51.094;6.760;2023-05-10T02:17:18;5.18;;;4.82;;
70014;SDS011;57358;51.094;6.760;2023-05-10T02:19:46;5.47;;;5.18;;
70014;SDS011;57358;51.094;6.760;2023-05-10T02:22:13;6.32;;;5.82;;
70014;SDS011;57358;51.094;6.760;2023-05-10T02:24:42;5.95;;;5.53;;
70014;SDS011;57358;51.094;6.760;2023-05-10T02:27:10;5.75;;;5.35;;
70014;SDS011;57358;51.094;6.760;2023-05-10T02:29:38;5.10;;;4.80;;
70014;SDS011;57358;51.094;6.760;2023-05-10T02:32:05;10.23;;;5.82;;
70014;SDS011;57358;51.094;6.760;2023-05-10T02:34:32;6.47;;;5.97;;
70014;SDS011;57358;51.094;6.760;2023-05-10T02:36:59;6.32;;;5.65;;
70014;SDS011;57358;51.094;6.760;2023-05-10T02:39:28;5.65;;;5.32;;
70014;SDS011;57358;51.094;6.760;2023-05-10T02:41:57;6.20;;;5.70;;
70014;SDS011;57358;51.094;6.760;2023-05-10T02:44:26;9.05;;;6.25;;
70014;SDS011;57358;51.094;6.760;2023-05-10T02:46:57;5.90;;;5.43;;
70014;SDS011;57358;51.094;6.760;2023-05-10T02:49:24;5.95;;;5.45;;
70014;SDS011;57358;51.094;6.760;2023-05-10T02:51:51;6.28;;;5.88;;
70014;SDS011;57358;51.094;6.760;2023-05-10T02:54:24;6.10;;;5.70;;
70014;SDS011;57358;51.094;6.760;2023-05-10T02:56:56;6.40;;;5.93;;
70014;SDS011;57358;51.094;6.760;2023-05-10T03:01:54;5.78;;;5.38;;
70014;SDS011;57358;51.094;6.760;2023-05-10T03:04:20;6.22;;;5.82;;
70014;SDS011;57358;51.094;6.760;2023-05-10T03:06:48;6.75;;;6.10;;
70014;SDS011;57358;51.094;6.760;2023-05-10T03:09:14;6.28;;;5.72;;
70014;SDS011;57358;51.094;6.760;2023-05-10T03:20:48;5.82;;;5.38;;
70014;SDS011;57358;51.094;6.760;2023-05-10T03:26:07;6.18;;;5.72;;
70014;SDS011;57358;51.094;6.760;2023-05-10T03:28:34;7.32;;;6.53;;
70014;SDS011;57358;51.094;6.760;2023-05-10T03:31:02;6.63;;;6.07;;
70014;SDS011;57358;51.094;6.760;2023-05-10T03:33:32;7.35;;;6.50;;
70014;SDS011;57358;51.094;6.760;2023-05-10T03:35:58;6.50;;;5.93;;
70014;SDS011;57358;51.094;6.760;2023-05-10T03:38:25;6.65;;;6.15;;
70014;SDS011;57358;51.094;6.760;2023-05-10T03:40:54;6.70;;;6.20;;
70014;SDS011;57358;51.094;6.760;2023-05-10T03:43:21;6.88;;;6.28;;
70014;SDS011;57358;51.094;6.760;2023-05-10T03:45:48;7.20;;;6.50;;
70014;SDS011;57358;51.094;6.760;2023-05-10T03:48:14;10.77;;;6.78;;
70014;SDS011;57358;51.094;6.760;2023-05-10T03:50:41;9.05;;;7.40;;
70014;SDS011;57358;51.094;6.760;2023-05-10T03:53:08;7.88;;;7.28;;
70014;SDS011;57358;51.094;6.760;2023-05-10T03:55:35;8.15;;;7.43;;
70014;SDS011;57358;51.094;6.760;2023-05-10T03:58:02;9.95;;;6.80;;
70014;SDS011;57358;51.094;6.760;2023-05-10T04:00:29;8.23;;;7.38;;
70014;SDS011;57358;51.094;6.760;2023-05-10T04:02:56;9.38;;;7.75;;
70014;SDS011;57358;51.094;6.760;2023-05-10T04:05:22;7.72;;;7.03;;
70014;SDS011;57358;51.094;6.760;2023-05-10T04:07:49;7.30;;;6.60;;
70014;SDS011;57358;51.094;6.760;2023-05-10T04:10:17;8.52;;;7.50;;
70014;SDS011;57358;51.094;6.760;2023-05-10T04:12:44;14.02;;;7.82;;
70014;SDS011;57358;51.094;6.760;2023-05-10T04:15:10;9.20;;;7.40;;
70014;SDS011;57358;51.094;6.760;2023-05-10T04:17:37;9.82;;;8.38;;
70014;SDS011;57358;51.094;6.760;2023-05-10T04:20:04;12.10;;;8.45;;
70014;SDS011;57358;51.094;6.760;2023-05-10T04:22:31;8.05;;;7.25;;
70014;SDS011;57358;51.094;6.760;2023-05-10T04:24:58;10.18;;;8.25;;
70014;SDS011;57358;51.094;6.760;2023-05-10T04:27:24;10.70;;;8.38;;
70014;SDS011;57358;51.094;6.760;2023-05-10T04:29:51;12.15;;;7.88;;
70014;SDS011;57358;51.094;6.760;2023-05-10T04:32:17;10.88;;;8.15;;
70014;SDS011;57358;51.094;6.760;2023-05-10T04:34:43;12.20;;;8.65;;
70014;SDS011;57358;51.094;6.760;2023-05-10T04:37:10;11.68;;;8.73;;
70014;SDS011;57358;51.094;6.760;2023-05-10T04:39:36;10.50;;;9.40;;
70014;SDS011;57358;51.094;6.760;2023-05-10T04:42:06;16.95;;;8.68;;
70014;SDS011;57358;51.094;6.760;2023-05-10T04:44:33;10.38;;;8.23;;
70014;SDS011;57358;51.094;6.760;2023-05-10T04:46:59;9.63;;;8.18;;
70014;SDS011;57358;51.094;6.760;2023-05-10T04:49:26;8.57;;;7.47;;
70014;SDS011;57358;51.094;6.760;2023-05-10T04:51:52;11.00;;;8.68;;
70014;SDS011;57358;51.094;6.760;2023-05-10T04:54:18;10.07;;;9.00;;
70014;SDS011;57358;51.094;6.760;2023-05-10T04:56:48;17.15;;;7.75;;
70014;SDS011;57358;51.094;6.760;2023-05-10T04:59:14;9.02;;;7.88;;
70014;SDS011;57358;51.094;6.760;2023-05-10T05:01:40;8.68;;;7.78;;
70014;SDS011;57358;51.094;6.760;2023-05-10T05:04:07;8.90;;;8.10;;
70014;SDS011;57358;51.094;6.760;2023-05-10T05:06:33;11.43;;;8.05;;
70014;SDS011;57358;51.094;6.760;2023-05-10T05:09:00;8.65;;;7.80;;
70014;SDS011;57358;51.094;6.760;2023-05-10T05:11:26;8.45;;;7.65;;
70014;SDS011;57358;51.094;6.760;2023-05-10T05:13:53;12.13;;;7.20;;
70014;SDS011;57358;51.094;6.760;2023-05-10T05:16:19;12.35;;;7.60;;
70014;SDS011;57358;51.094;6.760;2023-05-10T05:18:46;8.55;;;7.43;;
70014;SDS011;57358;51.094;6.760;2023-05-10T05:21:15;8.32;;;7.53;;
70014;SDS011;57358;51.094;6.760;2023-05-10T05:23:43;10.13;;;7.57;;
70014;SDS011;57358;51.094;6.760;2023-05-10T05:26:10;9.85;;;6.35;;
70014;SDS011;57358;51.094;6.760;2023-05-10T05:28:36;7.90;;;7.15;;
70014;SDS011;57358;51.094;6.760;2023-05-10T05:31:04;8.00;;;7.30;;
70014;SDS011;57358;51.094;6.760;2023-05-10T05:33:31;9.10;;;7.18;;
70014;SDS011;57358;51.094;6.760;2023-05-10T05:36:00;7.65;;;7.05;;
70014;SDS011;57358;51.094;6.760;2023-05-10T05:38:27;12.52;;;8.20;;
70014;SDS011;57358;51.094;6.760;2023-05-10T05:40:54;8.15;;;7.35;;
70014;SDS011;57358;51.094;6.760;2023-05-10T05:43:20;7.18;;;6.55;;
70014;SDS011;57358;51.094;6.760;2023-05-10T05:45:46;7.88;;;7.28;;
70014;SDS011;57358;51.094;6.760;2023-05-10T05:48:13;7.82;;;7.15;;
70014;SDS011;57358;51.094;6.760;2023-05-10T05:50:42;8.88;;;7.10;;
70014;SDS011;57358;51.094;6.760;2023-05-10T05:53:08;12.63;;;7.68;;
70014;SDS011;57358;51.094;6.760;2023-05-10T05:55:35;8.27;;;7.53;;
70014;SDS011;57358;51.094;6.760;2023-05-10T05:58:01;11.20;;;7.65;;
70014;SDS011;57358;51.094;6.760;2023-05-10T06:00:28;11.93;;;7.90;;
70014;SDS011;57358;51.094;6.760;2023-05-10T06:02:55;8.55;;;7.35;;
70014;SDS011;57358;51.094;6.760;2023-05-10T06:05:21;11.35;;;8.95;;
70014;SDS011;57358;51.094;6.760;2023-05-10T06:07:48;19.33;;;8.13;;
70014;SDS011;57358;51.094;6.760;2023-05-10T06:10:14;8.98;;;8.02;;
70014;SDS011;57358;51.094;6.760;2023-05-10T06:12:41;9.85;;;8.00;;
70014;SDS011;57358;51.094;6.760;2023-05-10T06:15:08;13.23;;;7.80;;
70014;SDS011;57358;51.094;6.760;2023-05-10T06:17:35;34.90;;;8.35;;
70014;SDS011;57358;51.094;6.760;2023-05-10T06:20:01;11.45;;;7.43;;
70014;SDS011;57358;51.094;6.760;2023-05-10T06:22:28;8.52;;;7.63;;
70014;SDS011;57358;51.094;6.760;2023-05-10T06:24:54;13.07;;;8.43;;
70014;SDS011;57358;51.094;6.760;2023-05-10T06:27:21;13.15;;;9.05;;
70014;SDS011;57358;51.094;6.760;2023-05-10T06:29:47;11.20;;;8.68;;
70014;SDS011;57358;51.094;6.760;2023-05-10T06:32:24;9.18;;;7.93;;
70014;SDS011;57358;51.094;6.760;2023-05-10T06:34:50;16.42;;;9.13;;
70014;SDS011;57358;51.094;6.760;2023-05-10T06:37:17;8.77;;;7.93;;
70014;SDS011;57358;51.094;6.760;2023-05-10T06:39:46;13.77;;;7.47;;
70014;SDS011;57358;51.094;6.760;2023-05-10T06:42:12;9.10;;;7.80;;
70014;SDS011;57358;51.094;6.760;2023-05-10T06:44:39;11.00;;;8.40;;
70014;SDS011;57358;51.094;6.760;2023-05-10T06:47:05;10.52;;;7.82;;
70014;SDS011;57358;51.094;6.760;2023-05-10T06:49:31;8.13;;;7.28;;
70014;SDS011;57358;51.094;6.760;2023-05-10T06:51:58;11.88;;;8.13;;
70014;SDS011;57358;51.094;6.760;2023-05-10T06:54:24;8.93;;;7.50;;
70014;SDS011;57358;51.094;6.760;2023-05-10T06:56:51;11.73;;;8.82;;
70014;SDS011;57358;51.094;6.760;2023-05-10T06:59:17;10.02;;;7.75;;
70014;SDS011;57358;51.094;6.760;2023-05-10T07:01:45;11.13;;;8.55;;
70014;SDS011;57358;51.094;6.760;2023-05-10T07:04:12;11.23;;;8.27;;
70014;SDS011;57358;51.094;6.760;2023-05-10T07:06:39;9.20;;;8.30;;
70014;SDS011;57358;51.094;6.760;2023-05-10T07:09:05;9.55;;;7.88;;
70014;SDS011;57358;51.094;6.760;2023-05-10T07:11:31;11.80;;;8.45;;
70014;SDS011;57358;51.094;6.760;2023-05-10T07:13:58;9.18;;;7.28;;
70014;SDS011;57358;51.094;6.760;2023-05-10T07:16:24;9.88;;;8.93;;
70014;SDS011;57358;51.094;6.760;2023-05-10T07:18:51;11.32;;;8.13;;
70014;SDS011;57358;51.094;6.760;2023-05-10T07:21:19;13.25;;;8.00;;
70014;SDS011;57358;51.094;6.760;2023-05-10T07:23:45;10.18;;;7.97;;
70014;SDS011;57358;51.094;6.760;2023-05-10T07:26:11;17.02;;;8.50;;
70014;SDS011;57358;51.094;6.760;2023-05-10T07:28:38;12.15;;;8.57;;
70014;SDS011;57358;51.094;6.760;2023-05-10T07:31:05;11.60;;;7.07;;
70014;SDS011;57358;51.094;6.760;2023-05-10T07:33:31;11.00;;;8.73;;
70014;SDS011;57358;51.094;6.760;2023-05-10T07:35:58;9.45;;;8.13;;
70014;SDS011;57358;51.094;6.760;2023-05-10T07:38:24;9.60;;;8.30;;
70014;SDS011;57358;51.094;6.760;2023-05-10T07:40:51;12.73;;;7.95;;
70014;SDS011;57358;51.094;6.760;2023-05-10T07:43:17;9.57;;;8.15;;
70014;SDS011;57358;51.094;6.760;2023-05-10T07:45:44;11.57;;;8.57;;
70014;SDS011;57358;51.094;6.760;2023-05-10T07:48:10;10.73;;;7.63;;
70014;SDS011;57358;51.094;6.760;2023-05-10T07:50:37;8.45;;;7.55;;
70014;SDS011;57358;51.094;6.760;2023-05-10T07:53:03;13.98;;;8.77;;
70014;SDS011;57358;51.094;6.760;2023-05-10T07:55:29;10.50;;;7.93;;
70014;SDS011;57358;51.094;6.760;2023-05-10T07:57:56;12.02;;;8.38;;
70014;SDS011;57358;51.094;6.760;2023-05-10T08:00:22;11.57;;;8.23;;
70014;SDS011;57358;51.094;6.760;2023-05-10T08:02:49;9.35;;;7.40;;
70014;SDS011;57358;51.094;6.760;2023-05-10T08:05:16;10.68;;;8.63;;
70014;SDS011;57358;51.094;6.760;2023-05-10T08:07:42;9.25;;;8.35;;
70014;SDS011;57358;51.094;6.760;2023-05-10T08:10:09;15.15;;;9.27;;
70014;SDS011;57358;51.094;6.760;2023-05-10T08:12:37;15.52;;;9.93;;
70014;SDS011;57358;51.094;6.760;2023-05-10T08:15:04;11.75;;;8.93;;
70014;SDS011;57358;51.094;6.760;2023-05-10T08:17:31;12.27;;;8.95;;
70014;SDS011;57358;51.094;6.760;2023-05-10T08:19:57;16.20;;;9.82;;
70014;SDS011;57358;51.094;6.760;2023-05-10T08:22:24;18.23;;;10.23;;
70014;SDS011;57358;51.094;6.760;2023-05-10T08:24:50;15.18;;;10.18;;
70014;SDS011;57358;51.094;6.760;2023-05-10T08:27:17;14.93;;;9.52;;
70014;SDS011;57358;51.094;6.760;2023-05-10T08:29:43;12.70;;;10.18;;
70014;SDS011;57358;51.094;6.760;2023-05-10T08:32:15;13.00;;;9.48;;
70014;SDS011;57358;51.094;6.760;2023-05-10T08:34:42;13.55;;;10.07;;
70014;SDS011;57358;51.094;6.760;2023-05-10T08:37:09;18.80;;;9.70;;
70014;SDS011;57358;51.094;6.760;2023-05-10T08:39:39;13.10;;;9.88;;
70014;SDS011;57358;51.094;6.760;2023-05-10T08:42:06;20.23;;;9.75;;
70014;SDS011;57358;51.094;6.760;2023-05-10T08:44:32;19.10;;;10.75;;
70014;SDS011;57358;51.094;6.760;2023-05-10T08:47:02;15.13;;;9.95;;
70014;SDS011;57358;51.094;6.760;2023-05-10T08:49:32;14.63;;;9.18;;
70014;SDS011;57358;51.094;6.760;2023-05-10T08:52:00;20.85;;;9.65;;
70014;SDS011;57358;51.094;6.760;2023-05-10T08:54:30;15.18;;;9.32;;
70014;SDS011;57358;51.094;6.760;2023-05-10T08:56:58;13.90;;;8.98;;
70014;SDS011;57358;51.094;6.760;2023-05-10T08:59:24;15.27;;;9.05;;
70014;SDS011;57358;51.094;6.760;2023-05-10T09:01:51;9.73;;;8.25;;
70014;SDS011;57358;51.094;6.760;2023-05-10T09:04:20;10.77;;;8.63;;
70014;SDS011;57358;51.094;6.760;2023-05-10T09:06:47;15.50;;;9.65;;
70014;SDS011;57358;51.094;6.760;2023-05-10T09:09:14;23.83;;;8.93;;
70014;SDS011;57358;51.094;6.760;2023-05-10T09:11:42;12.80;;;8.80;;
70014;SDS011;57358;51.094;6.760;2023-05-10T09:14:09;16.02;;;10.00;;
70014;SDS011;57358;51.094;6.760;2023-05-10T09:16:39;14.55;;;9.65;;
70014;SDS011;57358;51.094;6.760;2023-05-10T09:19:06;15.65;;;9.18;;
70014;SDS011;57358;51.094;6.760;2023-05-10T09:21:35;15.65;;;10.77;;
70014;SDS011;57358;51.094;6.760;2023-05-10T09:24:04;17.48;;;9.30;;
70014;SDS011;57358;51.094;6.760;2023-05-10T09:26:34;16.02;;;10.48;;
70014;SDS011;57358;51.094;6.760;2023-05-10T09:29:02;15.30;;;9.82;;
70014;SDS011;57358;51.094;6.760;2023-05-10T09:34:31;18.15;;;9.73;;
70014;SDS011;57358;51.094;6.760;2023-05-10T09:36:59;16.35;;;10.23;;
70014;SDS011;57358;51.094;6.760;2023-05-10T09:39:30;13.95;;;8.68;;
70014;SDS011;57358;51.094;6.760;2023-05-10T09:42:01;15.63;;;9.27;;
70014;SDS011;57358;51.094;6.760;2023-05-10T09:44:30;18.15;;;9.30;;
70014;SDS011;57358;51.094;6.760;2023-05-10T09:46:57;12.88;;;9.68;;
70014;SDS011;57358;51.094;6.760;2023-05-10T09:49:24;16.00;;;10.15;;
70014;SDS011;57358;51.094;6.760;2023-05-10T09:52:04;10.63;;;8.65;;
70014;SDS011;57358;51.094;6.760;2023-05-10T09:54:31;12.05;;;9.05;;
70014;SDS011;57358;51.094;6.760;2023-05-10T09:56:59;10.30;;;8.98;;
70014;SDS011;57358;51.094;6.760;2023-05-10T09:59:26;13.13;;;9.38;;
70014;SDS011;57358;51.094;6.760;2023-05-10T10:01:57;11.70;;;8.13;;
70014;SDS011;57358;51.094;6.760;2023-05-10T10:04:25;11.45;;;8.45;;
70014;SDS011;57358;51.094;6.760;2023-05-10T10:07:02;11.70;;;8.40;;
70014;SDS011;57358;51.094;6.760;2023-05-10T10:09:30;9.90;;;8.60;;
70014;SDS011;57358;51.094;6.760;2023-05-10T10:11:57;10.95;;;8.13;;
70014;SDS011;57358;51.094;6.760;2023-05-10T10:14:26;11.63;;;8.70;;
70014;SDS011;57358;51.094;6.760;2023-05-10T10:16:52;19.30;;;9.57;;
70014;SDS011;57358;51.094;6.760;2023-05-10T10:19:33;10.52;;;8.05;;
70014;SDS011;57358;51.094;6.760;2023-05-10T10:22:03;11.93;;;7.97;;
70014;SDS011;57358;51.094;6.760;2023-05-10T10:24:30;11.18;;;9.10;;
70014;SDS011;57358;51.094;6.760;2023-05-10T10:26:57;9.32;;;8.40;;
70014;SDS011;57358;51.094;6.760;2023-05-10T10:29:33;14.13;;;8.15;;
70014;SDS011;57358;51.094;6.760;2023-05-10T10:32:27;9.23;;;8.20;;
70014;SDS011;57358;51.094;6.760;2023-05-10T10:35:03;9.45;;;8.10;;
70014;SDS011;57358;51.094;6.760;2023-05-10T10:37:46;11.50;;;7.75;;
70014;SDS011;57358;51.094;6.760;2023-05-10T10:40:25;9.80;;;8.10;;
70014;SDS011;57358;51.094;6.760;2023-05-10T10:42:53;17.77;;;8.70;;
70014;SDS011;57358;51.094;6.760;2023-05-10T10:45:20;11.15;;;8.13;;
70014;SDS011;57358;51.094;6.760;2023-05-10T10:47:48;10.50;;;7.97;;
70014;SDS011;57358;51.094;6.760;2023-05-10T10:50:15;9.82;;;7.82;;
70014;SDS011;57358;51.094;6.760;2023-05-10T10:52:42;10.48;;;7.93;;
70014;SDS011;57358;51.094;6.760;2023-05-10T10:55:13;10.60;;;7.13;;
70014;SDS011;57358;51.094;6.760;2023-05-10T11:02:46;8.40;;;7.60;;
70014;SDS011;57358;51.094;6.760;2023-05-10T11:05:47;8.82;;;7.93;;
70014;SDS011;57358;51.094;6.760;2023-05-10T11:08:31;8.02;;;7.20;;
70014;SDS011;57358;51.094;6.760;2023-05-10T11:11:03;9.60;;;7.65;;
70014;SDS011;57358;51.094;6.760;2023-05-10T11:13:41;9.02;;;7.65;;
70014;SDS011;57358;51.094;6.760;2023-05-10T11:16:19;7.95;;;6.97;;
70014;SDS011;57358;51.094;6.760;2023-05-10T11:18:57;8.23;;;7.43;;
70014;SDS011;57358;51.094;6.760;2023-05-10T11:21:32;9.27;;;7.65;;
70014;SDS011;57358;51.094;6.760;2023-05-10T11:24:00;10.68;;;7.68;;
70014;SDS011;57358;51.094;6.760;2023-05-10T11:26:33;7.65;;;6.90;;
70014;SDS011;57358;51.094;6.760;2023-05-10T11:29:00;11.30;;;8.32;;
70014;SDS011;57358;51.094;6.760;2023-05-10T11:31:28;7.28;;;6.57;;
70014;SDS011;57358;51.094;6.760;2023-05-10T11:33:56;8.90;;;7.20;;
70014;SDS011;57358;51.094;6.760;2023-05-10T11:36:25;8.63;;;7.53;;
70014;SDS011;57358;51.094;6.760;2023-05-10T11:38:58;6.72;;;6.13;;
70014;SDS011;57358;51.094;6.760;2023-05-10T11:41:26;7.95;;;6.70;;
70014;SDS011;57358;51.094;6.760;2023-05-10T11:43:54;9.25;;;7.63;;
70014;SDS011;57358;51.094;6.760;2023-05-10T11:46:22;7.72;;;7.10;;
70014;SDS011;57358;51.094;6.760;2023-05-10T11:48:51;6.95;;;6.45;;
70014;SDS011;57358;51.094;6.760;2023-05-10T11:51:22;8.15;;;7.35;;
70014;SDS011;57358;51.094;6.760;2023-05-10T11:53:52;8.07;;;7.28;;
70014;SDS011;57358;51.094;6.760;2023-05-10T11:56:19;7.97;;;7.05;;
70014;SDS011;57358;51.094;6.760;2023-05-10T11:58:52;8.25;;;6.55;;
70014;SDS011;57358;51.094;6.760;2023-05-10T12:01:20;8.43;;;7.78;;
70014;SDS011;57358;51.094;6.760;2023-05-10T12:03:47;12.05;;;7.13;;
70014;SDS011;57358;51.094;6.760;2023-05-10T12:06:15;9.73;;;7.55;;
70014;SDS011;57358;51.094;6.760;2023-05-10T12:08:45;10.52;;;7.47;;
70014;SDS011;57358;51.094;6.760;2023-05-10T12:11:19;7.05;;;6.55;;
70014;SDS011;57358;51.094;6.760;2023-05-10T12:13:47;8.18;;;7.47;;
70014;SDS011;57358;51.094;6.760;2023-05-10T12:18:48;7.72;;;7.00;;
70014;SDS011;57358;51.094;6.760;2023-05-10T12:21:15;7.55;;;6.88;;
70014;SDS011;57358;51.094;6.760;2023-05-10T12:23:42;7.45;;;6.85;;
70014;SDS011;57358;51.094;6.760;2023-05-10T12:26:11;7.95;;;7.20;;
70014;SDS011;57358;51.094;6.760;2023-05-10T12:28:37;7.93;;;7.18;;
70014;SDS011;57358;51.094;6.760;2023-05-10T12:31:05;7.80;;;7.00;;
70014;SDS011;57358;51.094;6.760;2023-05-10T12:33:36;7.97;;;6.85;;
70014;SDS011;57358;51.094;6.760;2023-05-10T12:36:09;6.82;;;6.20;;
70014;SDS011;57358;51.094;6.760;2023-05-10T12:38:43;7.68;;;7.05;;
70014;SDS011;57358;51.094;6.760;2023-05-10T12:41:17;7.35;;;6.65;;
70014;SDS011;57358;51.094;6.760;2023-05-10T12:43:44;6.93;;;6.38;;
70014;SDS011;57358;51.094;6.760;2023-05-10T12:46:15;6.88;;;6.32;;
70014;SDS011;57358;51.094;6.760;2023-05-10T12:48:43;11.05;;;6.40;;
70014;SDS011;57358;51.094;6.760;2023-05-10T12:51:10;6.32;;;5.88;;
70014;SDS011;57358;51.094;6.760;2023-05-10T12:53:39;7.47;;;6.88;;
70014;SDS011;57358;51.094;6.760;2023-05-10T12:56:09;7.03;;;6.32;;
70014;SDS011;57358;51.094;6.760;2023-05-10T12:58:35;6.93;;;6.28;;
70014;SDS011;57358;51.094;6.760;2023-05-10T13:01:02;6.40;;;5.90;;
70014;SDS011;57358;51.094;6.760;2023-05-10T13:03:30;6.63;;;6.13;;
70014;SDS011;57358;51.094;6.760;2023-05-10T13:05:56;6.82;;;6.13;;
70014;SDS011;57358;51.094;6.760;2023-05-10T13:08:23;6.85;;;6.32;;
70014;SDS011;57358;51.094;6.760;2023-05-10T13:10:49;6.40;;;6.00;;
70014;SDS011;57358;51.094;6.760;2023-05-10T13:13:16;6.78;;;6.18;;
70014;SDS011;57358;51.094;6.760;2023-05-10T13:15:42;6.20;;;5.70;;
70014;SDS011;57358;51.094;6.760;2023-05-10T13:18:09;6.70;;;6.20;;
70014;SDS011;57358;51.094;6.760;2023-05-10T13:20:35;6.18;;;5.78;;
70014;SDS011;57358;51.094;6.760;2023-05-10T13:23:02;6.78;;;6.30;;
70014;SDS011;57358;51.094;6.760;2023-05-10T13:25:29;6.28;;;5.88;;
70014;SDS011;57358;51.094;6.760;2023-05-10T13:27:55;6.65;;;6.15;;
70014;SDS011;57358;51.094;6.760;2023-05-10T13:30:22;6.10;;;5.80;;
70014;SDS011;57358;51.094;6.760;2023-05-10T13:32:50;6.50;;;5.97;;
70014;SDS011;57358;51.094;6.760;2023-05-10T13:35:16;6.22;;;5.82;;
70014;SDS011;57358;51.094;6.760;2023-05-10T13:37:43;6.72;;;6.22;;
70014;SDS011;57358;51.094;6.760;2023-05-10T13:40:09;8.63;;;6.05;;
70014;SDS011;57358;51.094;6.760;2023-05-10T13:42:39;7.18;;;6.57;;
70014;SDS011;57358;51.094;6.760;2023-05-10T13:45:06;10.75;;;7.00;;
70014;SDS011;57358;51.094;6.760;2023-05-10T13:47:33;7.20;;;6.50;;
70014;SDS011;57358;51.094;6.760;2023-05-10T13:49:59;9.25;;;7.68;;
70014;SDS011;57358;51.094;6.760;2023-05-10T13:52:26;8.48;;;7.68;;
70014;SDS011;57358;51.094;6.760;2023-05-10T13:54:53;9.35;;;7.50;;
70014;SDS011;57358;51.094;6.760;2023-05-10T13:57:21;8.88;;;7.30;;
70014;SDS011;57358;51.094;6.760;2023-05-10T13:59:48;9.63;;;7.22;;
70014;SDS011;57358;51.094;6.760;2023-05-10T14:02:14;8.25;;;7.55;;
70014;SDS011;57358;51.094;6.760;2023-05-10T14:04:41;7.93;;;7.22;;
70014;SDS011;57358;51.094;6.760;2023-05-10T14:07:07;9.13;;;7.05;;
70014;SDS011;57358;51.094;6.760;2023-05-10T14:09:34;7.82;;;7.13;;
70014;SDS011;57358;51.094;6.760;2023-05-10T14:12:00;8.30;;;7.50;;
70014;SDS011;57358;51.094;6.760;2023-05-10T14:14:26;8.60;;;7.70;;
70014;SDS011;57358;51.094;6.760;2023-05-10T14:16:55;9.10;;;8.23;;
70014;SDS011;57358;51.094;6.760;2023-05-10T14:19:22;9.65;;;7.15;;
70014;SDS011;57358;51.094;6.760;2023-05-10T14:21:48;8.00;;;7.25;;
70014;SDS011;57358;51.094;6.760;2023-05-10T14:24:14;7.35;;;6.70;;
70014;SDS011;57358;51.094;6.760;2023-05-10T14:26:41;8.02;;;7.22;;
70014;SDS011;57358;51.094;6.760;2023-05-10T14:29:08;9.63;;;7.65;;
70014;SDS011;57358;51.094;6.760;2023-05-10T14:31:37;9.75;;;7.00;;
70014;SDS011;57358;51.094;6.760;2023-05-10T14:34:03;8.63;;;7.63;;
70014;SDS011;57358;51.094;6.760;2023-05-10T14:36:30;8.40;;;7.55;;
70014;SDS011;57358;51.094;6.760;2023-05-10T14:38:57;8.18;;;7.40;;
70014;SDS011;57358;51.094;6.760;2023-05-10T14:41:23;8.07;;;7.13;;
70014;SDS011;57358;51.094;6.760;2023-05-10T14:43:50;8.18;;;7.38;;
70014;SDS011;57358;51.094;6.760;2023-05-10T14:46:17;7.57;;;6.80;;
70014;SDS011;57358;51.094;6.760;2023-05-10T14:48:44;9.80;;;7.53;;
70014;SDS011;57358;51.094;6.760;2023-05-10T14:51:10;7.53;;;6.80;;
70014;SDS011;57358;51.094;6.760;2023-05-10T14:53:37;7.78;;;7.07;;
70014;SDS011;57358;51.094;6.760;2023-05-10T14:56:03;8.18;;;7.47;;
70014;SDS011;57358;51.094;6.760;2023-05-10T14:58:30;7.32;;;6.68;;
70014;SDS011;57358;51.094;6.760;2023-05-10T15:00:59;7.75;;;6.75;;
70014;SDS011;57358;51.094;6.760;2023-05-10T15:03:26;6.95;;;6.45;;
70014;SDS011;57358;51.094;6.760;2023-05-10T15:05:53;7.95;;;7.15;;
70014;SDS011;57358;51.094;6.760;2023-05-10T15:08:19;7.78;;;7.10;;
70014;SDS011;57358;51.094;6.760;2023-05-10T15:10:46;7.70;;;6.97;;
70014;SDS011;57358;51.094;6.760;2023-05-10T15:13:13;6.38;;;5.78;;
70014;SDS011;57358;51.094;6.760;2023-05-10T15:15:40;6.35;;;5.95;;
70014;SDS011;57358;51.094;6.760;2023-05-10T15:18:08;6.05;;;5.63;;
70014;SDS011;57358;51.094;6.760;2023-05-10T15:20:35;6.03;;;5.63;;
70014;SDS011;57358;51.094;6.760;2023-05-10T15:23:01;6.57;;;6.07;;
70014;SDS011;57358;51.094;6.760;2023-05-10T15:25:29;6.32;;;5.93;;
70014;SDS011;57358;51.094;6.760;2023-05-10T15:27:55;9.25;;;6.63;;